sensor_id;sensor_type;location;lat;lon;timestamp;temperature;humidity
70460;DHT22;57920;54.796;9.430;2022-12-20T00:02:13;22.50;33.20
70460;DHT22;57920;54.796;9.430;2022-12-20T00:04:39;22.50;33.20
70460;DHT22;57920;54.796;9.430;2022-12-20T00:07:05;22.50;33.30
70460;DHT22;57920;54.796;9.430;2022-12-20T00:09:30;22.50;33.30
70460;DHT22;57920;54.796;9.430;2022-12-20T00:11:56;22.50;33.30
70460;DHT22;57920;54.796;9.430;2022-12-20T00:14:21;22.40;33.30
70460;DHT22;57920;54.796;9.430;2022-12-20T00:16:47;22.50;33.40
70460;DHT22;57920;54.796;9.430;2022-12-20T00:19:12;22.40;33.40
70460;DHT22;57920;54.796;9.430;2022-12-20T00:21:38;22.40;33.40
70460;DHT22;57920;54.796;9.430;2022-12-20T00:24:04;22.40;33.40
70460;DHT22;57920;54.796;9.430;2022-12-20T00:26:32;22.40;33.50
70460;DHT22;57920;54.796;9.430;2022-12-20T00:28:58;22.40;33.40
70460;DHT22;57920;54.796;9.430;2022-12-20T00:31:26;22.40;33.40
70460;DHT22;57920;54.796;9.430;2022-12-20T00:33:53;22.40;33.40
70460;DHT22;57920;54.796;9.430;2022-12-20T00:36:21;22.40;33.50
70460;DHT22;57920;54.796;9.430;2022-12-20T00:38:47;22.50;33.40
70460;DHT22;57920;54.796;9.430;2022-12-20T00:41:16;22.50;33.50
70460;DHT22;57920;54.796;9.430;2022-12-20T00:43:42;22.50;33.40
70460;DHT22;57920;54.796;9.430;2022-12-20T00:46:10;22.50;33.40
70460;DHT22;57920;54.796;9.430;2022-12-20T00:48:36;22.50;33.50
70460;DHT22;57920;54.796;9.430;2022-12-20T00:51:04;22.50;33.50
70460;DHT22;57920;54.796;9.430;2022-12-20T00:53:31;22.50;33.50
70460;DHT22;57920;54.796;9.430;2022-12-20T00:55:57;22.50;33.50
70460;DHT22;57920;54.796;9.430;2022-12-20T00:58:24;22.50;33.50
70460;DHT22;57920;54.796;9.430;2022-12-20T01:00:49;22.50;33.50
70460;DHT22;57920;54.796;9.430;2022-12-20T01:03:15;22.50;33.60
70460;DHT22;57920;54.796;9.430;2022-12-20T01:05:53;22.50;33.50
70460;DHT22;57920;54.796;9.430;2022-12-20T01:08:19;22.50;33.50
70460;DHT22;57920;54.796;9.430;2022-12-20T01:10:45;22.50;33.60
70460;DHT22;57920;54.796;9.430;2022-12-20T01:13:11;22.40;33.70
70460;DHT22;57920;54.796;9.430;2022-12-20T01:15:37;22.40;33.70
70460;DHT22;57920;54.796;9.430;2022-12-20T01:18:03;22.40;33.70
70460;DHT22;57920;54.796;9.430;2022-12-20T01:20:28;22.40;33.70
70460;DHT22;57920;54.796;9.430;2022-12-20T01:22:54;22.40;33.70
70460;DHT22;57920;54.796;9.430;2022-12-20T01:25:19;22.40;33.70
70460;DHT22;57920;54.796;9.430;2022-12-20T01:27:45;22.40;33.70
70460;DHT22;57920;54.796;9.430;2022-12-20T01:30:11;22.50;33.70
70460;DHT22;57920;54.796;9.430;2022-12-20T01:32:36;22.50;33.60
70460;DHT22;57920;54.796;9.430;2022-12-20T01:35:02;22.50;33.50
70460;DHT22;57920;54.796;9.430;2022-12-20T01:37:28;22.50;33.50
70460;DHT22;57920;54.796;9.430;2022-12-20T01:39:54;22.60;33.40
70460;DHT22;57920;54.796;9.430;2022-12-20T01:42:19;22.60;33.50
70460;DHT22;57920;54.796;9.430;2022-12-20T01:47:11;22.70;33.40
70460;DHT22;57920;54.796;9.430;2022-12-20T01:49:39;22.70;33.40
70460;DHT22;57920;54.796;9.430;2022-12-20T01:52:08;22.70;33.30
70460;DHT22;57920;54.796;9.430;2022-12-20T01:54:47;22.70;33.30
70460;DHT22;57920;54.796;9.430;2022-12-20T01:57:23;22.70;33.40
70460;DHT22;57920;54.796;9.430;2022-12-20T01:59:52;22.70;33.30
70460;DHT22;57920;54.796;9.430;2022-12-20T02:02:18;22.80;33.30
70460;DHT22;57920;54.796;9.430;2022-12-20T02:04:43;22.80;33.30
70460;DHT22;57920;54.796;9.430;2022-12-20T02:07:11;22.80;33.40
70460;DHT22;57920;54.796;9.430;2022-12-20T02:09:39;22.70;33.40
70460;DHT22;57920;54.796;9.430;2022-12-20T02:12:12;22.70;33.40
70460;DHT22;57920;54.796;9.430;2022-12-20T02:25:41;22.60;33.60
70460;DHT22;57920;54.796;9.430;2022-12-20T02:31:14;22.60;33.70
70460;DHT22;57920;54.796;9.430;2022-12-20T02:33:45;22.60;33.70
70460;DHT22;57920;54.796;9.430;2022-12-20T02:36:15;22.60;33.80
70460;DHT22;57920;54.796;9.430;2022-12-20T02:38:41;22.60;33.80
70460;DHT22;57920;54.796;9.430;2022-12-20T02:41:36;22.60;33.90
70460;DHT22;57920;54.796;9.430;2022-12-20T02:44:08;22.60;33.90
70460;DHT22;57920;54.796;9.430;2022-12-20T02:46:53;22.60;33.90
70460;DHT22;57920;54.796;9.430;2022-12-20T02:49:24;22.60;33.90
70460;DHT22;57920;54.796;9.430;2022-12-20T02:51:53;22.60;33.90
70460;DHT22;57920;54.796;9.430;2022-12-20T02:54:20;22.60;33.90
70460;DHT22;57920;54.796;9.430;2022-12-20T02:57:07;22.60;33.90
70460;DHT22;57920;54.796;9.430;2022-12-20T02:59:46;22.60;33.90
70460;DHT22;57920;54.796;9.430;2022-12-20T03:02:13;22.60;33.90
70460;DHT22;57920;54.796;9.430;2022-12-20T03:04:40;22.60;33.90
70460;DHT22;57920;54.796;9.430;2022-12-20T03:07:09;22.60;33.90
70460;DHT22;57920;54.796;9.430;2022-12-20T03:09:40;22.60;33.90
70460;DHT22;57920;54.796;9.430;2022-12-20T03:12:07;22.60;33.90
70460;DHT22;57920;54.796;9.430;2022-12-20T03:14:33;22.60;33.90
70460;DHT22;57920;54.796;9.430;2022-12-20T03:16:59;22.60;33.90
70460;DHT22;57920;54.796;9.430;2022-12-20T03:19:25;22.60;33.90
70460;DHT22;57920;54.796;9.430;2022-12-20T03:21:50;22.60;33.90
70460;DHT22;57920;54.796;9.430;2022-12-20T03:24:16;22.60;33.90
70460;DHT22;57920;54.796;9.430;2022-12-20T03:26:42;22.60;34.00
70460;DHT22;57920;54.796;9.430;2022-12-20T03:29:08;22.60;34.00
70460;DHT22;57920;54.796;9.430;2022-12-20T03:31:34;22.60;34.00
70460;DHT22;57920;54.796;9.430;2022-12-20T03:34:00;22.60;34.00
70460;DHT22;57920;54.796;9.430;2022-12-20T03:36:26;22.60;34.00
70460;DHT22;57920;54.796;9.430;2022-12-20T03:38:52;22.60;34.00
70460;DHT22;57920;54.796;9.430;2022-12-20T03:41:20;22.60;34.00
70460;DHT22;57920;54.796;9.430;2022-12-20T03:43:47;22.60;34.00
70460;DHT22;57920;54.796;9.430;2022-12-20T03:46:13;22.60;34.00
70460;DHT22;57920;54.796;9.430;2022-12-20T03:48:39;22.70;34.00
70460;DHT22;57920;54.796;9.430;2022-12-20T03:51:04;22.70;34.00
70460;DHT22;57920;54.796;9.430;2022-12-20T03:53:30;22.70;34.00
70460;DHT22;57920;54.796;9.430;2022-12-20T03:55:55;22.70;34.00
70460;DHT22;57920;54.796;9.430;2022-12-20T03:58:21;22.70;34.00
70460;DHT22;57920;54.796;9.430;2022-12-20T04:00:47;22.70;34.00
70460;DHT22;57920;54.796;9.430;2022-12-20T04:03:13;22.70;34.00
70460;DHT22;57920;54.796;9.430;2022-12-20T04:05:38;22.70;34.00
70460;DHT22;57920;54.796;9.430;2022-12-20T04:08:04;22.70;34.00
70460;DHT22;57920;54.796;9.430;2022-12-20T04:10:29;22.70;34.00
70460;DHT22;57920;54.796;9.430;2022-12-20T04:12:55;22.70;34.00
70460;DHT22;57920;54.796;9.430;2022-12-20T04:15:21;22.70;34.00
70460;DHT22;57920;54.796;9.430;2022-12-20T04:17:46;22.70;34.00
70460;DHT22;57920;54.796;9.430;2022-12-20T04:20:14;22.70;34.00
70460;DHT22;57920;54.796;9.430;2022-12-20T04:22:47;22.70;34.00
70460;DHT22;57920;54.796;9.430;2022-12-20T04:25:16;22.70;34.00
70460;DHT22;57920;54.796;9.430;2022-12-20T04:27:42;22.70;34.00
70460;DHT22;57920;54.796;9.430;2022-12-20T04:30:08;22.80;34.00
70460;DHT22;57920;54.796;9.430;2022-12-20T04:32:34;22.80;34.00
70460;DHT22;57920;54.796;9.430;2022-12-20T04:34:59;22.80;33.90
70460;DHT22;57920;54.796;9.430;2022-12-20T04:37:25;22.80;33.90
70460;DHT22;57920;54.796;9.430;2022-12-20T04:39:51;22.90;33.90
70460;DHT22;57920;54.796;9.430;2022-12-20T04:42:16;22.90;33.90
70460;DHT22;57920;54.796;9.430;2022-12-20T04:44:42;22.90;33.80
70460;DHT22;57920;54.796;9.430;2022-12-20T04:47:07;22.90;33.80
70460;DHT22;57920;54.796;9.430;2022-12-20T04:49:34;22.90;33.80
70460;DHT22;57920;54.796;9.430;2022-12-20T04:52:00;23.00;33.80
70460;DHT22;57920;54.796;9.430;2022-12-20T04:54:45;23.00;33.70
70460;DHT22;57920;54.796;9.430;2022-12-20T04:57:12;23.00;33.80
70460;DHT22;57920;54.796;9.430;2022-12-20T04:59:38;23.00;33.70
70460;DHT22;57920;54.796;9.430;2022-12-20T05:02:03;23.00;33.70
70460;DHT22;57920;54.796;9.430;2022-12-20T05:04:29;23.00;33.70
70460;DHT22;57920;54.796;9.430;2022-12-20T05:06:55;23.00;33.80
70460;DHT22;57920;54.796;9.430;2022-12-20T05:09:20;23.10;33.70
70460;DHT22;57920;54.796;9.430;2022-12-20T05:11:46;23.00;33.70
70460;DHT22;57920;54.796;9.430;2022-12-20T05:14:11;23.00;33.80
70460;DHT22;57920;54.796;9.430;2022-12-20T05:16:37;23.00;33.80
70460;DHT22;57920;54.796;9.430;2022-12-20T05:19:03;23.00;33.80
70460;DHT22;57920;54.796;9.430;2022-12-20T05:21:29;23.00;33.80
70460;DHT22;57920;54.796;9.430;2022-12-20T05:24:14;23.00;33.90
70460;DHT22;57920;54.796;9.430;2022-12-20T05:27:08;23.00;33.90
70460;DHT22;57920;54.796;9.430;2022-12-20T05:29:34;23.00;34.00
70460;DHT22;57920;54.796;9.430;2022-12-20T05:31:59;23.00;34.00
70460;DHT22;57920;54.796;9.430;2022-12-20T05:34:25;22.90;34.00
70460;DHT22;57920;54.796;9.430;2022-12-20T05:36:50;22.90;34.10
70460;DHT22;57920;54.796;9.430;2022-12-20T05:39:16;22.90;34.10
70460;DHT22;57920;54.796;9.430;2022-12-20T05:41:41;22.90;34.10
70460;DHT22;57920;54.796;9.430;2022-12-20T05:44:07;22.80;34.20
70460;DHT22;57920;54.796;9.430;2022-12-20T05:46:33;22.80;34.20
70460;DHT22;57920;54.796;9.430;2022-12-20T05:48:58;22.80;34.30
70460;DHT22;57920;54.796;9.430;2022-12-20T05:51:24;22.80;34.30
70460;DHT22;57920;54.796;9.430;2022-12-20T05:53:49;22.80;34.30
70460;DHT22;57920;54.796;9.430;2022-12-20T05:56:15;22.80;34.40
70460;DHT22;57920;54.796;9.430;2022-12-20T05:58:41;22.80;34.40
70460;DHT22;57920;54.796;9.430;2022-12-20T06:01:07;22.70;34.40
70460;DHT22;57920;54.796;9.430;2022-12-20T06:03:33;22.70;34.40
70460;DHT22;57920;54.796;9.430;2022-12-20T06:05:59;22.70;34.40
70460;DHT22;57920;54.796;9.430;2022-12-20T06:08:25;22.70;34.40
70460;DHT22;57920;54.796;9.430;2022-12-20T06:10:51;22.70;34.40
70460;DHT22;57920;54.796;9.430;2022-12-20T06:13:17;22.70;34.40
70460;DHT22;57920;54.796;9.430;2022-12-20T06:15:43;22.80;34.40
70460;DHT22;57920;54.796;9.430;2022-12-20T06:18:08;22.80;34.40
70460;DHT22;57920;54.796;9.430;2022-12-20T06:20:35;22.80;34.40
70460;DHT22;57920;54.796;9.430;2022-12-20T06:23:01;22.80;34.40
70460;DHT22;57920;54.796;9.430;2022-12-20T06:25:27;22.80;34.40
70460;DHT22;57920;54.796;9.430;2022-12-20T06:27:54;22.80;34.40
70460;DHT22;57920;54.796;9.430;2022-12-20T06:30:19;22.80;34.30
70460;DHT22;57920;54.796;9.430;2022-12-20T06:32:45;22.80;34.40
70460;DHT22;57920;54.796;9.430;2022-12-20T06:35:10;22.80;34.40
70460;DHT22;57920;54.796;9.430;2022-12-20T06:37:36;22.80;34.40
70460;DHT22;57920;54.796;9.430;2022-12-20T06:40:05;22.80;34.30
70460;DHT22;57920;54.796;9.430;2022-12-20T06:42:31;22.80;34.40
70460;DHT22;57920;54.796;9.430;2022-12-20T06:45:06;22.80;34.40
70460;DHT22;57920;54.796;9.430;2022-12-20T06:47:32;22.80;34.30
70460;DHT22;57920;54.796;9.430;2022-12-20T06:49:57;22.80;34.80
70460;DHT22;57920;54.796;9.430;2022-12-20T06:52:23;22.80;34.80
70460;DHT22;57920;54.796;9.430;2022-12-20T06:54:49;22.80;35.20
70460;DHT22;57920;54.796;9.430;2022-12-20T06:57:15;22.80;35.40
70460;DHT22;57920;54.796;9.430;2022-12-20T06:59:41;22.80;35.30
70460;DHT22;57920;54.796;9.430;2022-12-20T07:02:10;22.80;35.20
70460;DHT22;57920;54.796;9.430;2022-12-20T07:04:35;22.80;35.20
70460;DHT22;57920;54.796;9.430;2022-12-20T07:07:02;22.90;35.20
70460;DHT22;57920;54.796;9.430;2022-12-20T07:09:28;22.90;35.20
70460;DHT22;57920;54.796;9.430;2022-12-20T07:11:54;22.90;35.40
70460;DHT22;57920;54.796;9.430;2022-12-20T07:14:19;22.90;35.90
70460;DHT22;57920;54.796;9.430;2022-12-20T07:16:45;23.00;35.70
70460;DHT22;57920;54.796;9.430;2022-12-20T07:19:12;22.70;36.10
70460;DHT22;57920;54.796;9.430;2022-12-20T07:21:38;22.40;36.70
70460;DHT22;57920;54.796;9.430;2022-12-20T07:24:04;22.40;37.20
70460;DHT22;57920;54.796;9.430;2022-12-20T07:26:30;22.60;36.80
70460;DHT22;57920;54.796;9.430;2022-12-20T07:28:56;22.70;36.70
70460;DHT22;57920;54.796;9.430;2022-12-20T07:31:21;22.80;36.50
70460;DHT22;57920;54.796;9.430;2022-12-20T07:33:47;23.00;36.50
70460;DHT22;57920;54.796;9.430;2022-12-20T07:36:13;23.10;36.10
70460;DHT22;57920;54.796;9.430;2022-12-20T07:38:42;23.20;36.30
70460;DHT22;57920;54.796;9.430;2022-12-20T07:41:10;23.30;35.90
70460;DHT22;57920;54.796;9.430;2022-12-20T07:43:36;23.40;35.90
70460;DHT22;57920;54.796;9.430;2022-12-20T07:46:05;23.50;36.00
70460;DHT22;57920;54.796;9.430;2022-12-20T07:48:31;23.50;36.30
70460;DHT22;57920;54.796;9.430;2022-12-20T07:51:02;23.50;36.30
70460;DHT22;57920;54.796;9.430;2022-12-20T07:53:33;23.50;36.50
70460;DHT22;57920;54.796;9.430;2022-12-20T07:56:00;23.50;36.50
70460;DHT22;57920;54.796;9.430;2022-12-20T07:58:28;23.60;36.40
70460;DHT22;57920;54.796;9.430;2022-12-20T08:00:55;23.60;36.20
70460;DHT22;57920;54.796;9.430;2022-12-20T08:03:27;23.60;36.20
70460;DHT22;57920;54.796;9.430;2022-12-20T08:05:57;23.60;36.60
70460;DHT22;57920;54.796;9.430;2022-12-20T08:08:23;23.60;36.30
70460;DHT22;57920;54.796;9.430;2022-12-20T08:10:50;23.60;36.50
70460;DHT22;57920;54.796;9.430;2022-12-20T08:13:16;23.50;37.10
70460;DHT22;57920;54.796;9.430;2022-12-20T08:15:42;23.40;36.70
70460;DHT22;57920;54.796;9.430;2022-12-20T08:18:08;23.30;37.40
70460;DHT22;57920;54.796;9.430;2022-12-20T08:20:33;23.20;37.00
70460;DHT22;57920;54.796;9.430;2022-12-20T08:22:59;23.00;37.50
70460;DHT22;57920;54.796;9.430;2022-12-20T08:25:26;22.90;38.20
70460;DHT22;57920;54.796;9.430;2022-12-20T08:27:52;22.80;38.20
70460;DHT22;57920;54.796;9.430;2022-12-20T08:30:17;22.70;38.20
70460;DHT22;57920;54.796;9.430;2022-12-20T08:32:43;22.60;38.80
70460;DHT22;57920;54.796;9.430;2022-12-20T08:35:08;22.50;38.90
70460;DHT22;57920;54.796;9.430;2022-12-20T08:37:34;22.40;39.00
70460;DHT22;57920;54.796;9.430;2022-12-20T08:40:00;22.30;38.70
70460;DHT22;57920;54.796;9.430;2022-12-20T08:42:26;22.20;38.90
70460;DHT22;57920;54.796;9.430;2022-12-20T08:44:56;22.10;39.20
70460;DHT22;57920;54.796;9.430;2022-12-20T08:47:22;22.00;39.90
70460;DHT22;57920;54.796;9.430;2022-12-20T08:49:48;22.00;39.80
70460;DHT22;57920;54.796;9.430;2022-12-20T08:52:13;21.90;39.60
70460;DHT22;57920;54.796;9.430;2022-12-20T08:54:39;21.90;39.80
70460;DHT22;57920;54.796;9.430;2022-12-20T08:57:04;21.80;39.90
70460;DHT22;57920;54.796;9.430;2022-12-20T08:59:30;21.70;39.90
70460;DHT22;57920;54.796;9.430;2022-12-20T09:01:55;21.70;39.80
70460;DHT22;57920;54.796;9.430;2022-12-20T09:04:21;21.60;40.00
70460;DHT22;57920;54.796;9.430;2022-12-20T09:06:47;21.50;39.80
70460;DHT22;57920;54.796;9.430;2022-12-20T09:09:12;21.50;39.90
70460;DHT22;57920;54.796;9.430;2022-12-20T09:11:38;21.40;39.90
70460;DHT22;57920;54.796;9.430;2022-12-20T09:14:19;21.40;39.90
70460;DHT22;57920;54.796;9.430;2022-12-20T09:16:44;21.60;40.50
70460;DHT22;57920;54.796;9.430;2022-12-20T09:19:12;21.80;40.00
70460;DHT22;57920;54.796;9.430;2022-12-20T09:21:41;21.90;39.20
70460;DHT22;57920;54.796;9.430;2022-12-20T09:24:07;22.10;39.00
70460;DHT22;57920;54.796;9.430;2022-12-20T09:26:33;22.20;38.60
70460;DHT22;57920;54.796;9.430;2022-12-20T09:29:02;22.20;38.60
70460;DHT22;57920;54.796;9.430;2022-12-20T09:31:28;22.20;38.40
70460;DHT22;57920;54.796;9.430;2022-12-20T09:33:55;22.20;38.60
70460;DHT22;57920;54.796;9.430;2022-12-20T09:36:22;22.10;38.60
70460;DHT22;57920;54.796;9.430;2022-12-20T09:38:48;22.00;38.50
70460;DHT22;57920;54.796;9.430;2022-12-20T09:43:53;21.90;38.60
70460;DHT22;57920;54.796;9.430;2022-12-20T09:46:21;21.90;38.60
70460;DHT22;57920;54.796;9.430;2022-12-20T09:48:47;21.80;38.60
70460;DHT22;57920;54.796;9.430;2022-12-20T09:57:17;21.60;38.70
70460;DHT22;57920;54.796;9.430;2022-12-20T09:59:47;21.50;38.70
70460;DHT22;57920;54.796;9.430;2022-12-20T10:02:19;21.50;38.80
70460;DHT22;57920;54.796;9.430;2022-12-20T10:04:45;21.40;38.70
70460;DHT22;57920;54.796;9.430;2022-12-20T10:16:23;21.50;38.60
70460;DHT22;57920;54.796;9.430;2022-12-20T10:21:45;21.70;39.20
70460;DHT22;57920;54.796;9.430;2022-12-20T10:24:18;21.70;38.70
70460;DHT22;57920;54.796;9.430;2022-12-20T10:26:48;21.90;39.50
70460;DHT22;57920;54.796;9.430;2022-12-20T10:29:15;21.90;39.00
70460;DHT22;57920;54.796;9.430;2022-12-20T10:31:40;21.90;38.90
70460;DHT22;57920;54.796;9.430;2022-12-20T10:34:06;22.00;39.20
70460;DHT22;57920;54.796;9.430;2022-12-20T10:36:36;22.00;39.40
70460;DHT22;57920;54.796;9.430;2022-12-20T10:39:08;22.00;39.50
70460;DHT22;57920;54.796;9.430;2022-12-20T10:47:42;21.90;39.70
70460;DHT22;57920;54.796;9.430;2022-12-20T10:50:22;21.90;39.70
70460;DHT22;57920;54.796;9.430;2022-12-20T10:53:22;21.90;40.10
70460;DHT22;57920;54.796;9.430;2022-12-20T10:55:50;21.90;39.70
70460;DHT22;57920;54.796;9.430;2022-12-20T11:01:13;21.90;39.50
70460;DHT22;57920;54.796;9.430;2022-12-20T11:04:00;21.90;39.60
70460;DHT22;57920;54.796;9.430;2022-12-20T11:06:40;22.00;39.20
70460;DHT22;57920;54.796;9.430;2022-12-20T11:09:22;22.10;39.00
70460;DHT22;57920;54.796;9.430;2022-12-20T11:12:16;22.00;39.30
70460;DHT22;57920;54.796;9.430;2022-12-20T11:15:22;21.90;39.50
70460;DHT22;57920;54.796;9.430;2022-12-20T11:17:50;21.90;39.50
70460;DHT22;57920;54.796;9.430;2022-12-20T11:31:15;21.90;39.50
70460;DHT22;57920;54.796;9.430;2022-12-20T11:36:59;22.00;39.70
70460;DHT22;57920;54.796;9.430;2022-12-20T11:52:53;21.70;39.40
70460;DHT22;57920;54.796;9.430;2022-12-20T11:55:35;21.70;39.50
70460;DHT22;57920;54.796;9.430;2022-12-20T12:01:09;21.60;39.50
70460;DHT22;57920;54.796;9.430;2022-12-20T12:03:41;21.50;39.30
70460;DHT22;57920;54.796;9.430;2022-12-20T12:06:19;21.50;39.30
70460;DHT22;57920;54.796;9.430;2022-12-20T12:17:35;21.60;39.10
70460;DHT22;57920;54.796;9.430;2022-12-20T12:23:19;21.50;39.00
70460;DHT22;57920;54.796;9.430;2022-12-20T12:25:46;21.50;39.00
70460;DHT22;57920;54.796;9.430;2022-12-20T12:28:13;21.50;39.10
70460;DHT22;57920;54.796;9.430;2022-12-20T12:30:46;21.50;39.20
70460;DHT22;57920;54.796;9.430;2022-12-20T12:33:21;21.40;39.30
70460;DHT22;57920;54.796;9.430;2022-12-20T12:36:10;21.40;39.40
70460;DHT22;57920;54.796;9.430;2022-12-20T12:41:44;21.30;40.40
70460;DHT22;57920;54.796;9.430;2022-12-20T12:46:49;21.70;40.00
70460;DHT22;57920;54.796;9.430;2022-12-20T12:49:19;21.80;39.70
70460;DHT22;57920;54.796;9.430;2022-12-20T12:51:53;21.90;39.60
70460;DHT22;57920;54.796;9.430;2022-12-20T12:54:35;21.90;39.70
70460;DHT22;57920;54.796;9.430;2022-12-20T12:57:06;21.90;39.80
70460;DHT22;57920;54.796;9.430;2022-12-20T12:59:39;21.90;39.70
70460;DHT22;57920;54.796;9.430;2022-12-20T13:18:25;22.20;40.10
70460;DHT22;57920;54.796;9.430;2022-12-20T13:21:30;22.20;39.70
70460;DHT22;57920;54.796;9.430;2022-12-20T13:26:57;22.00;39.70
70460;DHT22;57920;54.796;9.430;2022-12-20T13:29:25;22.00;40.50
70460;DHT22;57920;54.796;9.430;2022-12-20T13:31:51;22.00;39.80
70460;DHT22;57920;54.796;9.430;2022-12-20T13:34:36;22.00;40.60
70460;DHT22;57920;54.796;9.430;2022-12-20T13:37:02;21.90;40.40
70460;DHT22;57920;54.796;9.430;2022-12-20T13:39:30;21.90;40.30
70460;DHT22;57920;54.796;9.430;2022-12-20T13:45:11;21.90;40.50
70460;DHT22;57920;54.796;9.430;2022-12-20T13:47:43;21.90;40.70
70460;DHT22;57920;54.796;9.430;2022-12-20T13:50:27;22.00;40.80
70460;DHT22;57920;54.796;9.430;2022-12-20T13:52:54;22.00;40.80
70460;DHT22;57920;54.796;9.430;2022-12-20T13:55:46;21.90;40.70
70460;DHT22;57920;54.796;9.430;2022-12-20T13:58:33;21.90;40.80
70460;DHT22;57920;54.796;9.430;2022-12-20T14:01:06;21.90;41.10
70460;DHT22;57920;54.796;9.430;2022-12-20T14:03:43;21.80;40.60
70460;DHT22;57920;54.796;9.430;2022-12-20T14:06:12;21.70;40.80
70460;DHT22;57920;54.796;9.430;2022-12-20T14:08:46;21.70;40.90
70460;DHT22;57920;54.796;9.430;2022-12-20T14:11:23;21.70;40.50
70460;DHT22;57920;54.796;9.430;2022-12-20T14:14:01;21.70;40.50
70460;DHT22;57920;54.796;9.430;2022-12-20T14:16:28;21.70;40.30
70460;DHT22;57920;54.796;9.430;2022-12-20T14:19:00;21.70;40.20
70460;DHT22;57920;54.796;9.430;2022-12-20T14:21:28;21.70;40.10
70460;DHT22;57920;54.796;9.430;2022-12-20T14:23:56;21.70;40.10
70460;DHT22;57920;54.796;9.430;2022-12-20T14:26:32;21.70;40.00
70460;DHT22;57920;54.796;9.430;2022-12-20T14:29:00;21.70;40.00
70460;DHT22;57920;54.796;9.430;2022-12-20T14:36:38;21.50;40.10
70460;DHT22;57920;54.796;9.430;2022-12-20T14:42:01;21.50;40.20
70460;DHT22;57920;54.796;9.430;2022-12-20T14:44:31;21.40;40.30
70460;DHT22;57920;54.796;9.430;2022-12-20T14:47:03;21.40;40.40
70460;DHT22;57920;54.796;9.430;2022-12-20T14:49:37;21.40;40.40
70460;DHT22;57920;54.796;9.430;2022-12-20T14:52:28;21.30;40.40
70460;DHT22;57920;54.796;9.430;2022-12-20T14:57:30;21.40;40.20
70460;DHT22;57920;54.796;9.430;2022-12-20T15:08:10;21.40;40.00
70460;DHT22;57920;54.796;9.430;2022-12-20T15:10:36;21.40;39.90
70460;DHT22;57920;54.796;9.430;2022-12-20T15:13:02;21.40;39.90
70460;DHT22;57920;54.796;9.430;2022-12-20T15:15:27;21.50;39.70
70460;DHT22;57920;54.796;9.430;2022-12-20T15:17:53;21.50;39.80
70460;DHT22;57920;54.796;9.430;2022-12-20T15:20:18;21.40;39.70
70460;DHT22;57920;54.796;9.430;2022-12-20T15:22:45;21.40;39.70
70460;DHT22;57920;54.796;9.430;2022-12-20T15:25:15;21.40;39.70
70460;DHT22;57920;54.796;9.430;2022-12-20T15:27:41;21.30;39.80
70460;DHT22;57920;54.796;9.430;2022-12-20T15:30:13;21.30;39.90
70460;DHT22;57920;54.796;9.430;2022-12-20T15:32:40;21.30;39.90
70460;DHT22;57920;54.796;9.430;2022-12-20T15:35:12;21.10;40.00
70460;DHT22;57920;54.796;9.430;2022-12-20T15:37:38;21.10;40.00
70460;DHT22;57920;54.796;9.430;2022-12-20T15:40:04;21.10;40.00
70460;DHT22;57920;54.796;9.430;2022-12-20T15:42:30;21.10;40.10
70460;DHT22;57920;54.796;9.430;2022-12-20T15:44:55;21.10;40.00
70460;DHT22;57920;54.796;9.430;2022-12-20T15:47:22;21.10;40.00
70460;DHT22;57920;54.796;9.430;2022-12-20T15:49:47;21.20;39.90
70460;DHT22;57920;54.796;9.430;2022-12-20T15:52:21;21.30;39.70
70460;DHT22;57920;54.796;9.430;2022-12-20T15:54:48;21.30;39.70
70460;DHT22;57920;54.796;9.430;2022-12-20T15:57:14;21.40;39.60
70460;DHT22;57920;54.796;9.430;2022-12-20T15:59:40;21.40;39.50
70460;DHT22;57920;54.796;9.430;2022-12-20T16:02:20;21.50;39.50
70460;DHT22;57920;54.796;9.430;2022-12-20T16:04:46;21.50;39.40
70460;DHT22;57920;54.796;9.430;2022-12-20T16:07:12;21.50;39.30
70460;DHT22;57920;54.796;9.430;2022-12-20T16:09:38;21.50;39.30
70460;DHT22;57920;54.796;9.430;2022-12-20T16:12:08;21.50;39.30
70460;DHT22;57920;54.796;9.430;2022-12-20T16:14:37;21.50;39.20
70460;DHT22;57920;54.796;9.430;2022-12-20T16:17:03;21.50;39.30
70460;DHT22;57920;54.796;9.430;2022-12-20T16:19:29;21.50;39.30
70460;DHT22;57920;54.796;9.430;2022-12-20T16:21:56;21.50;39.40
70460;DHT22;57920;54.796;9.430;2022-12-20T16:24:21;21.40;39.40
70460;DHT22;57920;54.796;9.430;2022-12-20T16:26:48;21.40;39.50
70460;DHT22;57920;54.796;9.430;2022-12-20T16:29:13;21.40;39.60
70460;DHT22;57920;54.796;9.430;2022-12-20T16:31:40;21.40;39.60
70460;DHT22;57920;54.796;9.430;2022-12-20T16:34:12;21.30;39.60
70460;DHT22;57920;54.796;9.430;2022-12-20T16:36:37;21.30;39.70
70460;DHT22;57920;54.796;9.430;2022-12-20T16:39:03;21.30;39.70
70460;DHT22;57920;54.796;9.430;2022-12-20T16:41:31;21.30;39.60
70460;DHT22;57920;54.796;9.430;2022-12-20T16:43:58;21.30;39.70
70460;DHT22;57920;54.796;9.430;2022-12-20T16:46:26;21.30;39.60
70460;DHT22;57920;54.796;9.430;2022-12-20T16:48:53;21.30;39.60
70460;DHT22;57920;54.796;9.430;2022-12-20T16:51:30;21.40;39.50
70460;DHT22;57920;54.796;9.430;2022-12-20T16:54:02;21.40;39.50
70460;DHT22;57920;54.796;9.430;2022-12-20T16:56:28;21.40;39.50
70460;DHT22;57920;54.796;9.430;2022-12-20T16:58:55;21.30;39.50
70460;DHT22;57920;54.796;9.430;2022-12-20T17:01:24;21.30;39.60
70460;DHT22;57920;54.796;9.430;2022-12-20T17:03:52;21.30;39.60
70460;DHT22;57920;54.796;9.430;2022-12-20T17:06:18;21.20;39.70
70460;DHT22;57920;54.796;9.430;2022-12-20T17:08:44;21.20;39.70
70460;DHT22;57920;54.796;9.430;2022-12-20T17:11:21;21.10;39.80
70460;DHT22;57920;54.796;9.430;2022-12-20T17:13:49;21.10;39.80
70460;DHT22;57920;54.796;9.430;2022-12-20T17:16:16;21.10;39.90
70460;DHT22;57920;54.796;9.430;2022-12-20T17:18:43;21.10;40.00
70460;DHT22;57920;54.796;9.430;2022-12-20T17:21:43;21.00;39.90
70460;DHT22;57920;54.796;9.430;2022-12-20T17:24:18;21.00;40.00
70460;DHT22;57920;54.796;9.430;2022-12-20T17:26:44;21.00;40.00
70460;DHT22;57920;54.796;9.430;2022-12-20T17:29:11;21.00;39.90
70460;DHT22;57920;54.796;9.430;2022-12-20T17:31:38;21.10;39.70
70460;DHT22;57920;54.796;9.430;2022-12-20T17:34:06;21.10;39.70
70460;DHT22;57920;54.796;9.430;2022-12-20T17:36:33;21.10;39.60
70460;DHT22;57920;54.796;9.430;2022-12-20T17:38:59;21.20;39.60
70460;DHT22;57920;54.796;9.430;2022-12-20T17:41:27;21.30;39.50
70460;DHT22;57920;54.796;9.430;2022-12-20T17:43:53;21.30;39.40
70460;DHT22;57920;54.796;9.430;2022-12-20T17:46:20;21.30;39.60
70460;DHT22;57920;54.796;9.430;2022-12-20T17:48:46;21.20;39.50
70460;DHT22;57920;54.796;9.430;2022-12-20T17:51:17;21.20;39.50
70460;DHT22;57920;54.796;9.430;2022-12-20T17:53:45;21.20;39.60
70460;DHT22;57920;54.796;9.430;2022-12-20T17:56:13;21.10;39.70